createdAt,value
2019-01-12T00:10:23.821Z,54.73
2019-01-12T00:25:29.339Z,58.87
2019-01-12T00:47:52.569Z,52.37
2019-01-12T00:50:21.001Z,52.13
2019-01-12T00:52:49.410Z,50.00
2019-01-12T00:55:17.810Z,52.03
2019-01-12T00:57:46.218Z,55.53
2019-01-12T01:00:20.517Z,58.90
2019-01-12T01:02:48.908Z,56.90
2019-01-12T01:05:17.320Z,54.70
2019-01-12T01:07:45.698Z,51.60
2019-01-12T01:10:19.672Z,56.40
2019-01-12T01:12:48.109Z,54.90
2019-01-12T01:15:16.480Z,63.23
2019-01-12T01:17:44.878Z,57.43
2019-01-12T01:20:15.802Z,53.23
2019-01-12T01:22:44.210Z,58.80
2019-01-12T01:25:12.598Z,50.40
2019-01-12T01:27:41.050Z,63.03
2019-01-12T01:30:17.492Z,53.23
2019-01-12T01:32:45.946Z,55.73
2019-01-12T01:35:14.407Z,54.93
2019-01-12T01:37:42.835Z,51.87
2019-01-12T01:40:16.012Z,59.77
2019-01-12T01:49:22.520Z,53.90
2019-01-12T01:52:00.908Z,55.37
2019-01-12T01:55:01.900Z,48.30
2019-01-12T01:57:36.628Z,51.17
2019-01-12T02:00:17.800Z,54.53
2019-01-12T02:05:47.384Z,50.40
2019-01-12T02:25:38.424Z,52.47
2019-01-12T02:28:02.841Z,49.00
2019-01-12T02:33:33.816Z,57.67
2019-01-12T02:36:13.490Z,48.23
2019-01-12T02:38:47.363Z,47.90
2019-01-12T02:54:34.226Z,42.03
2019-01-12T03:00:26.014Z,48.80
2019-01-12T03:03:01.498Z,49.17
2019-01-12T03:05:34.967Z,43.60
2019-01-12T03:08:36.021Z,44.50
2019-01-12T03:11:38.955Z,42.90
2019-01-12T03:14:16.068Z,52.13
2019-01-12T03:16:48.247Z,44.77
2019-01-12T03:19:14.394Z,43.97
2019-01-12T03:27:50.736Z,41.27
2019-01-12T03:30:27.301Z,48.40
2019-01-12T03:33:04.104Z,42.00
2019-01-12T03:36:19.316Z,44.83
2019-01-12T03:38:59.800Z,43.47
2019-01-12T03:44:38.660Z,42.87
2019-01-12T03:47:10.026Z,41.07
2019-01-12T03:49:40.240Z,43.40
2019-01-12T03:52:08.616Z,44.87
2019-01-12T03:54:37.057Z,42.07
2019-01-12T03:57:13.934Z,37.60
2019-01-12T04:04:06.544Z,37.47
2019-01-12T04:06:34.670Z,43.03
2019-01-12T04:09:10.579Z,41.70
2019-01-12T04:12:09.686Z,42.60
2019-01-12T04:14:40.019Z,39.40
2019-01-12T04:17:08.714Z,39.93
2019-01-12T04:19:46.461Z,37.60
2019-01-12T04:22:16.963Z,41.37
2019-01-12T04:24:47.981Z,42.43
2019-01-12T04:27:20.074Z,38.70
2019-01-12T04:29:48.562Z,43.97
2019-01-12T04:32:17.030Z,40.50
2019-01-12T04:34:45.431Z,41.67
2019-01-12T04:37:13.803Z,40.17
2019-01-12T04:39:42.237Z,48.50
2019-01-12T04:42:10.606Z,38.80
2019-01-12T04:44:39.033Z,42.03
2019-01-12T04:47:07.417Z,36.70
2019-01-12T04:49:35.876Z,39.60
2019-01-12T04:52:04.302Z,37.97
2019-01-12T04:54:32.679Z,44.13
2019-01-12T04:57:01.049Z,43.77
2019-01-12T04:59:29.481Z,44.90
2019-01-12T05:01:57.837Z,38.80
2019-01-12T05:04:26.286Z,41.13
2019-01-12T05:06:54.641Z,40.30
2019-01-12T05:09:23.084Z,37.07
2019-01-12T05:11:51.470Z,40.47
2019-01-12T05:14:19.832Z,43.20
2019-01-12T05:16:48.247Z,37.63
2019-01-12T05:19:16.652Z,43.30
2019-01-12T05:21:45.139Z,41.40
2019-01-12T05:24:13.596Z,40.23
2019-01-12T05:26:41.977Z,42.03
2019-01-12T05:29:10.375Z,40.50
2019-01-12T05:31:38.816Z,44.30
2019-01-12T05:34:07.213Z,46.77
2019-01-12T05:36:35.588Z,44.97
2019-01-12T05:39:06.283Z,44.63
2019-01-12T05:41:34.698Z,50.43
2019-01-12T05:44:03.454Z,49.40
2019-01-12T05:46:31.892Z,50.27
2019-01-12T05:49:00.296Z,44.33
2019-01-12T05:51:28.673Z,48.03
2019-01-12T05:53:58.503Z,45.20
2019-01-12T05:56:26.888Z,50.40
2019-01-12T05:58:55.265Z,49.37
2019-01-12T06:01:23.649Z,48.50
2019-01-12T06:03:51.960Z,45.53
2019-01-12T06:06:20.380Z,49.90
2019-01-12T06:08:48.773Z,47.50
2019-01-12T06:11:17.145Z,48.67
2019-01-12T06:13:45.515Z,47.43
2019-01-12T06:16:13.963Z,53.23
2019-01-12T06:18:42.294Z,48.07
2019-01-12T06:21:10.707Z,50.67
2019-01-12T06:23:39.177Z,50.03
2019-01-12T06:26:07.593Z,51.10
2019-01-12T06:28:36.015Z,53.30
2019-01-12T06:31:04.407Z,47.83
2019-01-12T06:33:32.884Z,55.27
2019-01-12T06:36:01.343Z,47.67
2019-01-12T06:38:29.706Z,53.67
2019-01-12T06:40:58.122Z,49.87
2019-01-12T06:43:26.483Z,48.60
2019-01-12T06:45:54.857Z,47.53
2019-01-12T06:48:23.274Z,41.83
2019-01-12T06:50:51.640Z,43.20
2019-01-12T06:53:20.042Z,40.97
2019-01-12T06:55:48.473Z,46.37
2019-01-12T06:58:16.837Z,42.63
2019-01-12T07:00:45.267Z,45.63
2019-01-12T07:03:13.651Z,45.47
2019-01-12T07:05:42.011Z,43.50
2019-01-12T07:08:10.422Z,39.77
2019-01-12T07:10:38.867Z,39.20
2019-01-12T07:13:07.389Z,37.90
2019-01-12T07:15:35.829Z,34.63
2019-01-12T07:18:08.837Z,36.20
2019-01-12T07:20:34.291Z,34.50
2019-01-12T07:23:02.649Z,33.57
2019-01-12T07:25:31.033Z,32.27
2019-01-12T07:27:59.488Z,37.07
2019-01-12T07:30:27.959Z,31.93
2019-01-12T07:32:56.344Z,32.77
2019-01-12T07:35:24.752Z,30.13
2019-01-12T07:37:53.226Z,32.63
2019-01-12T07:40:21.607Z,28.47
2019-01-12T07:42:50.055Z,29.67
2019-01-12T07:45:20.916Z,26.10
2019-01-12T07:47:49.302Z,26.57
2019-01-12T07:50:19.560Z,30.15
2019-01-12T07:52:48.710Z,30.43
2019-01-12T07:55:19.835Z,24.53
2019-01-12T07:57:52.931Z,25.30
2019-01-12T08:00:21.737Z,28.97
2019-01-12T08:02:52.035Z,21.57
2019-01-12T08:05:25.167Z,21.80
2019-01-12T08:07:53.568Z,23.87
2019-01-12T08:10:22.920Z,22.93
2019-01-12T08:12:51.449Z,19.70
2019-01-12T08:15:19.819Z,19.40
2019-01-12T08:17:48.334Z,21.47
2019-01-12T08:20:16.823Z,19.13
2019-01-12T08:22:46.343Z,17.77
2019-01-12T08:25:14.738Z,13.87
2019-01-12T08:27:43.139Z,18.50
2019-01-12T08:30:17.504Z,15.07
2019-01-12T08:32:46.069Z,14.03
2019-01-12T08:35:14.937Z,22.13
2019-01-12T08:38:02.022Z,15.33
2019-01-12T08:40:32.058Z,16.77
2019-01-12T08:43:23.372Z,20.03
2019-01-12T08:45:53.397Z,16.57
2019-01-12T08:48:21.935Z,12.47
2019-01-12T08:50:50.678Z,13.07
2019-01-12T08:53:19.149Z,15.93
2019-01-12T08:55:47.797Z,16.07
2019-01-12T08:58:16.209Z,13.33
2019-01-12T09:00:46.811Z,12.10
2019-01-12T09:03:16.177Z,15.70
2019-01-12T09:05:44.713Z,16.07
2019-01-12T09:08:13.491Z,12.20
2019-01-12T09:10:42.365Z,21.80
2019-01-12T09:13:13.641Z,14.10
2019-01-12T09:15:42.069Z,14.57
2019-01-12T09:18:10.593Z,16.23
2019-01-12T09:20:39.169Z,15.70
2019-01-12T09:23:07.626Z,12.07
2019-01-12T09:25:36.562Z,11.93
2019-01-12T09:28:05.171Z,12.73
2019-01-12T09:30:33.831Z,11.23
2019-01-12T09:33:02.389Z,17.97
2019-01-12T09:35:30.828Z,15.63
2019-01-12T09:38:02.271Z,13.17
2019-01-12T09:40:30.824Z,13.00
2019-01-12T09:42:59.479Z,14.57
2019-01-12T09:45:27.962Z,16.87
2019-01-12T09:47:56.379Z,11.67
2019-01-12T09:50:24.733Z,17.57
2019-01-12T09:52:53.203Z,11.73
2019-01-12T09:55:24.635Z,14.00
2019-01-12T09:57:53.331Z,14.43
2019-01-12T10:00:41.221Z,17.30
2019-01-12T10:03:09.673Z,19.60
2019-01-12T10:05:41.011Z,15.83
2019-01-12T10:08:09.597Z,9.43
2019-01-12T10:10:40.885Z,10.97
2019-01-12T10:13:09.515Z,10.90
2019-01-12T10:16:17.223Z,13.37
2019-01-12T10:18:43.402Z,9.60
2019-01-12T10:21:16.535Z,11.93
2019-01-12T10:23:45.148Z,12.43
2019-01-12T10:26:22.110Z,13.43
2019-01-12T10:29:01.810Z,20.07
2019-01-12T10:31:31.597Z,19.57
2019-01-12T10:34:02.901Z,15.00
2019-01-12T10:36:31.412Z,14.93
2019-01-12T10:39:00.004Z,20.47
2019-01-12T10:41:28.517Z,17.07
2019-01-12T10:43:57.131Z,15.87
2019-01-12T10:46:25.597Z,13.13
2019-01-12T10:48:54.070Z,19.73
2019-01-12T10:51:23.083Z,11.50
2019-01-12T10:53:51.703Z,13.40
2019-01-12T10:56:21.996Z,11.73
2019-01-12T10:58:50.659Z,11.63
2019-01-12T11:01:19.137Z,15.20
2019-01-12T11:03:47.539Z,15.23
2019-01-12T11:06:16.793Z,11.80
2019-01-12T11:08:47.373Z,14.50
2019-01-12T11:11:15.815Z,10.67
2019-01-12T11:13:46.027Z,14.23
2019-01-12T11:16:16.167Z,12.30
2019-01-12T11:18:44.649Z,14.90
2019-01-12T11:21:13.075Z,13.17
2019-01-12T11:23:41.711Z,10.20
2019-01-12T11:26:11.744Z,7.93
2019-01-12T11:28:40.161Z,13.37
2019-01-12T11:31:09.030Z,11.67
2019-01-12T11:33:39.217Z,12.43
2019-01-12T11:36:07.730Z,9.80
2019-01-12T11:38:38.595Z,13.33
2019-01-12T11:41:10.138Z,8.37
2019-01-12T11:43:40.915Z,11.10
2019-01-12T11:46:12.127Z,12.63
2019-01-12T11:48:43.629Z,12.80
2019-01-12T11:51:12.688Z,9.70
2019-01-12T11:53:41.213Z,16.47
2019-01-12T11:56:29.866Z,8.53
2019-01-12T11:59:00.113Z,14.77
2019-01-12T12:01:31.300Z,10.20
2019-01-12T12:04:03.157Z,12.73
2019-01-12T12:06:58.507Z,9.70
2019-01-12T12:10:02.121Z,11.77
2019-01-12T12:12:47.260Z,11.30
2019-01-12T12:15:27.193Z,13.23
2019-01-12T12:18:07.441Z,11.13
2019-01-12T12:20:43.706Z,13.93
2019-01-12T12:23:12.546Z,11.03
2019-01-12T12:25:47.521Z,14.77
2019-01-12T12:28:17.467Z,12.27
2019-01-12T12:30:46.027Z,13.80
2019-01-12T12:33:14.705Z,11.13
2019-01-12T12:35:43.239Z,15.93
2019-01-12T12:38:11.804Z,13.27
2019-01-12T12:40:47.349Z,13.90
2019-01-12T12:43:15.975Z,15.40
2019-01-12T12:45:44.823Z,12.53
2019-01-12T12:48:13.329Z,12.13
2019-01-12T12:50:41.894Z,12.07
2019-01-12T12:53:10.245Z,12.67
2019-01-12T12:55:38.864Z,13.83
2019-01-12T12:58:07.625Z,10.23
2019-01-12T13:00:36.242Z,8.80
2019-01-12T13:03:05.431Z,11.53
2019-01-12T13:05:41.449Z,15.37
2019-01-12T13:08:12.394Z,13.47
2019-01-12T13:10:46.337Z,12.07
2019-01-12T13:13:14.738Z,13.87
2019-01-12T13:15:43.196Z,10.47
2019-01-12T13:18:11.891Z,9.83
2019-01-12T13:20:41.386Z,10.83
2019-01-12T13:23:11.535Z,12.97
2019-01-12T13:25:43.475Z,6.93
2019-01-12T13:28:11.942Z,7.90
2019-01-12T13:30:40.310Z,11.20
2019-01-12T13:33:10.456Z,8.57
2019-01-12T13:35:38.958Z,9.30
2019-01-12T13:38:11.163Z,13.73
2019-01-12T13:40:45.860Z,10.10
2019-01-12T13:43:26.213Z,8.10
2019-01-12T13:46:05.768Z,10.43
2019-01-12T13:48:34.264Z,8.40
2019-01-12T13:51:02.801Z,9.70
2019-01-12T13:53:31.223Z,9.47
2019-01-12T13:56:02.560Z,16.90
2019-01-12T13:58:32.567Z,11.37
2019-01-12T14:01:00.948Z,13.13
2019-01-12T14:03:30.960Z,9.20
2019-01-12T14:06:00.339Z,13.17
2019-01-12T14:08:28.740Z,11.50
2019-01-12T14:10:57.216Z,14.77
2019-01-12T14:13:25.661Z,9.73
2019-01-12T14:15:54.079Z,9.97
2019-01-12T14:18:22.837Z,12.67
2019-01-12T14:20:53.047Z,12.70
2019-01-12T14:23:21.539Z,11.90
2019-01-12T14:25:49.979Z,14.40
2019-01-12T14:28:19.217Z,16.23
2019-01-12T14:30:49.235Z,9.80
2019-01-12T14:33:17.767Z,13.13
2019-01-12T14:35:47.508Z,16.43
2019-01-12T14:38:17.328Z,13.63
2019-01-12T14:40:45.708Z,12.90
2019-01-12T14:43:14.143Z,13.63
2019-01-12T14:45:42.588Z,11.60
2019-01-12T14:48:11.043Z,11.97
2019-01-12T14:50:39.439Z,11.97
2019-01-12T14:53:08.037Z,8.77
2019-01-12T14:55:36.689Z,14.50
2019-01-12T14:58:05.132Z,12.73
2019-01-12T15:00:34.822Z,11.00
2019-01-12T15:03:04.748Z,9.47
2019-01-12T15:05:33.593Z,14.23
2019-01-12T15:08:02.077Z,9.57
2019-01-12T15:10:30.524Z,12.17
2019-01-12T15:12:59.125Z,14.93
2019-01-12T15:15:27.590Z,12.43
2019-01-12T15:17:55.967Z,13.13
2019-01-12T15:20:26.103Z,11.87
2019-01-12T15:22:54.523Z,12.43
2019-01-12T15:25:22.917Z,11.47
2019-01-12T15:27:51.415Z,9.70
2019-01-12T15:30:24.316Z,16.07
2019-01-12T15:32:54.402Z,21.57
2019-01-12T15:35:24.826Z,21.50
2019-01-12T15:37:53.356Z,19.70
2019-01-12T15:40:22.707Z,14.90
2019-01-12T15:42:51.142Z,13.93
2019-01-12T15:45:21.754Z,21.33
2019-01-12T15:47:50.198Z,8.83
2019-01-12T15:50:20.616Z,15.87
2019-01-12T15:52:48.987Z,14.10
2019-01-12T15:55:17.388Z,15.90
2019-01-12T15:57:45.892Z,10.93
2019-01-12T16:00:20.509Z,11.93
2019-01-12T16:02:48.884Z,12.13
2019-01-12T16:05:17.358Z,10.73
2019-01-12T16:07:45.736Z,15.90
2019-01-12T16:10:15.265Z,14.17
2019-01-12T16:12:43.694Z,17.00
2019-01-12T16:15:20.230Z,13.60
2019-01-12T16:17:48.918Z,14.40
2019-01-12T16:20:20.252Z,11.60
2019-01-12T16:22:48.668Z,14.70
2019-01-12T16:25:17.102Z,11.33
2019-01-12T16:27:45.557Z,12.23
2019-01-12T16:30:20.748Z,12.37
2019-01-12T16:32:49.258Z,11.70
2019-01-12T16:35:17.988Z,17.83
2019-01-12T16:37:46.651Z,16.17
2019-01-12T16:40:18.138Z,11.73
2019-01-12T16:42:46.607Z,13.03
2019-01-12T16:45:15.163Z,15.00
2019-01-12T16:47:43.574Z,16.13
2019-01-12T16:50:12.010Z,10.23
2019-01-12T16:52:40.395Z,14.33
2019-01-12T16:55:11.216Z,16.60
2019-01-12T16:57:39.694Z,12.83
2019-01-12T17:00:11.619Z,20.50
2019-01-12T17:02:40.060Z,14.13
2019-01-12T17:05:08.443Z,14.30
2019-01-12T17:07:36.852Z,14.37
2019-01-12T17:10:08.518Z,16.30
2019-01-12T17:12:36.928Z,14.10
2019-01-12T17:15:08.223Z,12.53
2019-01-12T17:17:36.775Z,13.23
2019-01-12T17:20:08.516Z,12.30
2019-01-12T17:22:40.594Z,9.17
2019-01-12T17:25:09.149Z,11.20
2019-01-12T17:27:37.650Z,15.57
2019-01-12T17:30:12.610Z,16.03
2019-01-12T17:32:44.090Z,17.47
2019-01-12T17:35:20.552Z,17.47
2019-01-12T17:38:02.260Z,14.20
2019-01-12T17:41:02.313Z,14.83
2019-01-12T17:43:42.412Z,16.20
2019-01-12T17:49:20.748Z,16.03
2019-01-12T17:52:00.948Z,15.33
2019-01-12T17:57:17.236Z,13.57
2019-01-12T18:00:30.882Z,12.33
2019-01-12T18:02:35.810Z,17.40
2019-01-12T18:05:10.636Z,15.97
2019-01-12T18:08:11.399Z,16.53
2019-01-12T18:10:55.162Z,17.30
2019-01-12T18:13:26.764Z,15.07
2019-01-12T18:15:56.948Z,17.97
2019-01-12T18:18:52.448Z,13.47
2019-01-12T18:21:35.489Z,23.67
2019-01-12T18:24:23.154Z,15.83
2019-01-12T18:27:00.772Z,16.60
2019-01-12T18:29:57.826Z,17.73
2019-01-12T18:32:26.380Z,15.27
2019-01-12T18:38:07.540Z,19.37
2019-01-12T18:43:43.731Z,15.27
2019-01-12T18:46:12.329Z,11.07
2019-01-12T18:48:45.076Z,14.97
2019-01-12T18:51:45.394Z,14.00
2019-01-12T18:54:25.336Z,12.47
2019-01-12T19:12:04.034Z,11.67
2019-01-12T19:14:39.208Z,16.67
2019-01-12T19:17:15.417Z,11.17
2019-01-12T19:19:58.962Z,18.03
2019-01-12T19:22:33.216Z,11.93
2019-01-12T19:25:21.352Z,13.67
2019-01-12T19:31:31.586Z,12.87
2019-01-12T19:34:11.841Z,16.20
2019-01-12T19:36:42.678Z,13.10
2019-01-12T19:39:11.163Z,13.77
2019-01-12T19:41:39.812Z,13.53
2019-01-12T19:44:08.604Z,12.63
2019-01-12T19:46:43.960Z,12.77
2019-01-12T19:49:12.461Z,13.70
2019-01-12T19:51:40.936Z,16.47
2019-01-12T19:54:09.521Z,13.47
2019-01-12T19:56:37.931Z,14.60
2019-01-12T19:59:13.465Z,12.67
2019-01-12T20:01:36.855Z,16.03
2019-01-12T20:04:05.493Z,13.53
2019-01-12T20:06:41.626Z,14.10
2019-01-12T20:09:33.158Z,14.67
2019-01-12T20:11:48.400Z,10.93
2019-01-12T20:16:54.007Z,11.50
2019-01-12T20:19:22.760Z,10.73
2019-01-12T20:21:53.036Z,8.23
2019-01-12T20:24:43.520Z,13.97
2019-01-12T20:30:20.666Z,10.73
2019-01-12T20:33:15.510Z,8.97
2019-01-12T20:36:25.244Z,9.93
2019-01-12T20:39:36.186Z,16.97
2019-01-12T20:42:08.162Z,16.80
2019-01-12T20:44:51.453Z,16.10
2019-01-12T20:47:50.322Z,13.47
2019-01-12T20:50:22.026Z,14.43
2019-01-12T20:53:03.955Z,11.90
2019-01-12T20:55:49.740Z,16.10
2019-01-12T20:58:27.244Z,16.97
2019-01-12T21:01:13.758Z,11.40
2019-01-12T21:03:51.289Z,10.17
2019-01-12T21:06:23.008Z,11.70
2019-01-12T21:09:06.766Z,9.57
2019-01-12T21:11:55.659Z,12.37
2019-01-12T21:14:27.320Z,11.60
2019-01-12T21:16:55.945Z,14.10
2019-01-12T21:19:24.398Z,12.30
2019-01-12T21:21:52.837Z,13.27
2019-01-12T21:24:21.418Z,12.57
2019-01-12T21:26:49.970Z,12.97
2019-01-12T21:29:18.382Z,15.23
2019-01-12T21:31:46.830Z,12.30
2019-01-12T21:34:15.302Z,12.80
2019-01-12T21:36:43.741Z,11.33
2019-01-12T21:39:12.359Z,11.60
2019-01-12T21:41:40.938Z,15.37
2019-01-12T21:44:09.508Z,17.70
2019-01-12T21:46:37.917Z,11.37
2019-01-12T21:49:06.454Z,16.60
2019-01-12T21:51:34.903Z,18.00
2019-01-12T21:54:03.393Z,13.00
2019-01-12T21:56:31.840Z,12.00
2019-01-12T21:59:00.249Z,15.20
2019-01-12T22:01:28.713Z,9.10
2019-01-12T22:03:57.090Z,9.57
2019-01-12T22:06:25.558Z,12.57
2019-01-12T22:08:53.976Z,14.73
2019-01-12T22:11:22.393Z,13.57
2019-01-12T22:13:50.793Z,7.10
2019-01-12T22:16:19.942Z,12.37
2019-01-12T22:18:48.362Z,11.23
2019-01-12T22:21:16.760Z,11.77
2019-01-12T22:23:45.179Z,11.70
2019-01-12T22:26:13.587Z,10.00
2019-01-12T22:28:42.043Z,10.53
2019-01-12T22:31:10.531Z,10.13
2019-01-12T22:33:39.008Z,12.67
2019-01-12T22:36:07.467Z,8.70
2019-01-12T22:38:35.897Z,13.90
2019-01-12T22:41:04.283Z,9.33
2019-01-12T22:43:32.690Z,9.50
2019-01-12T22:46:01.102Z,11.57
2019-01-12T22:48:29.533Z,10.23
2019-01-12T22:50:58.019Z,12.07
2019-01-12T22:53:26.411Z,14.00
2019-01-12T22:55:54.855Z,8.27
2019-01-12T22:58:23.224Z,9.37
2019-01-12T23:00:55.463Z,13.17
2019-01-12T23:03:23.921Z,10.90
2019-01-12T23:05:52.369Z,11.67
2019-01-12T23:08:20.792Z,8.00
2019-01-12T23:10:49.171Z,10.30
2019-01-12T23:13:17.610Z,10.73
2019-01-12T23:15:46.065Z,17.97
2019-01-12T23:18:14.632Z,10.63
2019-01-12T23:20:43.163Z,13.40
2019-01-12T23:23:11.611Z,12.67
2019-01-12T23:25:40.065Z,15.90
2019-01-12T23:28:08.555Z,11.67
2019-01-12T23:30:37.233Z,14.67
2019-01-12T23:33:05.911Z,20.53
2019-01-12T23:35:34.282Z,12.60
2019-01-12T23:38:02.965Z,17.53
2019-01-12T23:40:34.135Z,21.73
2019-01-12T23:43:02.667Z,13.30
2019-01-12T23:45:31.175Z,19.80
2019-01-12T23:47:59.651Z,14.73
2019-01-12T23:50:28.026Z,14.33
2019-01-12T23:52:56.421Z,16.53
2019-01-12T23:55:24.811Z,17.07
2019-01-12T23:57:53.207Z,13.93
